Time;durP1;ratioP1;P1;durP2;ratioP2;P2;SDS_P1;SDS_P2;PMS_P1;PMS_P2;Temp;Humidity;BMP_temperature;BMP_pressure;BME280_temperature;BME280_humidity;BME280_pressure;Samples;Min_cycle;Max_cycle;Signal;HPM_P1;HPM_P2
2022/01/21 05:06:53;;;;;;;12.85;4.90;;;2.20;99.90;;;;;;6064495;23;20146;-91
2022/01/21 05:28:18;;;;;;;;;;;;;;;;;;;;;
2022/01/21 05:31:04;;;;;;;14.30;4.80;;;2.10;99.90;;;;;;5663410;25;20092;-92
2022/01/21 05:40:19;;;;;;;;;;;;;;;;;;;;;
2022/01/21 05:49:23;;;;;;;13.30;4.82;;;2.10;99.90;;;;;;6162498;23;20032;-90
2022/01/21 05:56:02;;;;;;;;;;;;;;;;;;;;;
2022/01/21 05:59:07;;;;;;;;;;;;;;;;;;;;;
2022/01/21 06:05:12;;;;;;;;;;;;;;;;;;;;;
2022/01/21 06:37:22;;;;;;;;;;;;;;;;;;;;;
2022/01/21 06:43:14;;;;;;;;;;;;;;;;;;;;;
2022/01/21 06:49:42;;;;;;;18.38;4.85;;;2.10;99.90;;;;;;6120379;23;19909;-90
2022/01/21 06:55:10;;;;;;;10.80;4.50;;;2.10;99.90;;;;;;6062183;23;20007;-93
2022/01/21 06:57:38;;;;;;;;;;;2.50;99.90;;;;;;6146013;23;20009;-90
2022/01/21 07:00:09;;;;;;;12.32;4.28;;;2.20;99.90;;;;;;6187000;23;19904;-90
2022/01/21 07:02:50;;;;;;;13.18;3.97;;;2.20;99.90;;;;;;6241643;23;20004;-91
2022/01/21 07:05:49;;;;;;;;;;;;;;;;;;;;;
2022/01/21 07:08:26;;;;;;;;;;;;;;;;;;;;;
2022/01/21 07:10:57;;;;;;;14.25;4.70;;;2.20;99.90;;;;;;6242263;23;20080;-90
2022/01/21 07:30:17;;;;;;;13.10;4.50;;;2.20;99.90;;;;;;5993676;23;20391;-92
2022/01/21 08:20:18;;;;;;;19.47;4.60;;;2.00;99.80;;;;;;6137650;22;1441886;-92
2022/01/21 08:22:44;;;;;;;10.60;4.82;;;3.90;99.90;;;;;;6280389;22;20083;-91
2022/01/21 08:25:14;;;;;;;11.93;5.18;;;2.80;97.90;;;;;;6281159;22;20094;-91
2022/01/21 08:27:40;;;;;;;11.27;5.25;;;2.30;99.00;;;;;;6281049;22;20018;-91
2022/01/21 08:30:25;;;;;;;12.25;4.68;;;2.00;99.90;;;;;;6280366;22;20459;-90
2022/01/21 08:32:51;;;;;;;12.98;4.72;;;1.80;99.90;;;;;;6280386;22;20443;-91
2022/01/21 08:35:51;;;;;;;13.25;4.72;;;2.50;99.90;;;;;;6280467;22;20003;-92
2022/01/21 08:38:17;;;;;;;14.23;4.65;;;1.70;99.90;;;;;;6280394;22;20424;-91
2022/01/21 08:41:17;;;;;;;12.30;4.70;;;1.90;99.90;;;;;;6280531;22;20003;-90
2022/01/21 08:43:48;;;;;;;11.55;4.68;;;2.10;99.90;;;;;;6280385;22;19999;-91
2022/01/21 08:46:24;;;;;;;17.70;4.80;;;1.90;99.90;;;;;;6280473;22;20012;-91
2022/01/21 08:49:05;;;;;;;13.68;5.55;;;2.00;99.90;;;;;;6280152;22;20026;-89
2022/01/21 08:51:39;;;;;;;13.63;5.30;;;2.00;99.90;;;;;;6280376;22;20524;-91
2022/01/21 08:54:12;;;;;;;17.00;5.35;;;2.10;99.90;;;;;;6280496;22;20418;-89
2022/01/21 08:57:09;;;;;;;;;;;;;;;;;;;;;
2022/01/21 08:59:44;;;;;;;14.05;4.85;;;2.30;99.90;;;;;;6282509;22;20063;-89
2022/01/21 09:02:10;;;;;;;17.80;5.07;;;2.50;99.90;;;;;;6281033;22;20007;-92
2022/01/21 09:04:56;;;;;;;12.63;4.93;;;2.60;99.90;;;;;;6279306;22;20359;-90
2022/01/21 09:07:25;;;;;;;15.43;4.68;;;2.60;99.90;;;;;;6265761;22;20098;-91
2022/01/21 09:09:56;;;;;;;15.43;4.93;;;3.40;99.90;;;;;;6279943;22;20000;-90
2022/01/21 09:16:42;;;;;;;;;;;;;;;;;;;;;
2022/01/21 09:19:18;;;;;;;17.60;4.63;;;3.10;99.90;;;;;;6196605;23;20099;-91
2022/01/21 09:21:45;;;;;;;11.82;5.00;;;3.10;99.90;;;;;;6186422;23;20012;-91
2022/01/21 09:24:40;;;;;;;16.23;5.35;;;3.20;99.90;;;;;;6187065;23;20009;-91
2022/01/21 09:27:09;;;;;;;17.75;4.57;;;3.20;99.90;;;;;;6176941;23;20445;-91
2022/01/21 09:29:49;;;;;;;22.40;4.63;;;3.40;99.90;;;;;;6185659;23;20324;-91
2022/01/21 09:32:17;;;;;;;17.10;4.18;;;;;;;;;;6182429;23;20011;-91
2022/01/21 09:34:43;;;;;;;20.90;4.63;;;;;;;;;;6270586;22;20420;-93
2022/01/21 09:37:09;;;;;;;20.35;4.60;;;6.40;99.90;;;;;;6272971;22;20008;-91
2022/01/21 09:39:59;;;;;;;13.98;3.85;;;3.90;99.90;;;;;;6272590;22;20090;-90
2022/01/21 09:42:53;;;;;;;17.35;4.20;;;4.00;99.90;;;;;;6272725;22;20012;-92
2022/01/21 09:45:22;;;;;;;11.75;4.18;;;;;;;;;;6272790;22;20019;-89
2022/01/21 09:48:10;;;;;;;16.60;4.47;;;4.30;99.90;;;;;;6272589;22;20038;-92
2022/01/21 09:51:15;;;;;;;11.23;3.70;;;4.60;99.90;;;;;;6272825;22;20270;-91
2022/01/21 09:54:01;;;;;;;;;;;;;;;;;;;;;
2022/01/21 09:56:51;;;;;;;;;;;;;;;;;;;;;
2022/01/21 09:59:27;;;;;;;8.45;3.17;;;4.70;99.20;;;;;;6274194;22;20399;-90
2022/01/21 10:06:10;;;;;;;16.80;3.85;;;3.00;99.90;;;;;;6062864;23;20011;-89
2022/01/21 10:37:04;;;;;;;14.55;2.63;;;5.50;94.70;;;;;;5842692;24;20055;-89
2022/01/21 11:08:10;;;;;;;17.40;3.50;;;6.80;95.80;;;;;;5842291;24;20085;-91
2022/01/21 11:10:47;;;;;;;10.68;3.40;;;7.20;96.40;;;;;;6040771;23;20010;-91
2022/01/21 11:13:20;;;;;;;12.57;4.18;;;;;;;;;;6271952;22;20348;-91
2022/01/21 11:15:52;;;;;;;16.42;3.67;;;6.10;91.80;;;;;;6272982;22;20463;-90
2022/01/21 11:18:28;;;;;;;19.98;3.30;;;;;;;;;;6273219;22;20011;-92
2022/01/21 11:21:23;;;;;;;16.80;3.50;;;6.20;89.30;;;;;;6272106;22;20015;-90
2022/01/21 11:24:07;;;;;;;11.85;3.50;;;6.10;91.30;;;;;;6272995;22;20003;-91
2022/01/21 11:26:33;;;;;;;10.68;2.97;;;;;;;;;;6272150;22;20023;-90
2022/01/21 11:29:06;;;;;;;15.18;4.03;;;5.10;92.10;;;;;;6272177;22;20011;-90
2022/01/21 11:31:50;;;;;;;9.98;3.53;;;6.50;90.40;;;;;;6272126;22;20458;-90
2022/01/21 11:34:19;;;;;;;8.25;3.00;;;;;;;;;;6272737;22;20411;-90
2022/01/21 11:36:45;;;;;;;13.82;2.88;;;;;;;;;;6272275;22;20495;-91
2022/01/21 11:39:14;;;;;;;13.88;3.28;;;6.60;83.20;;;;;;6272172;22;20163;-91
2022/01/21 11:41:43;;;;;;;11.75;3.05;;;6.90;87.30;;;;;;6272316;22;20000;-90
2022/01/21 11:44:11;;;;;;;10.73;3.13;;;7.20;88.90;;;;;;6272126;22;20004;-90
2022/01/21 11:46:47;;;;;;;11.20;3.17;;;6.90;86.90;;;;;;6272389;22;20015;-91
2022/01/21 11:49:18;;;;;;;11.57;3.17;;;9.00;93.60;;;;;;6271842;22;20004;-90
2022/01/21 11:51:49;;;;;;;8.75;2.65;;;6.80;90.10;;;;;;6272108;22;20057;-90
2022/01/21 11:54:33;;;;;;;;;;;;;;;;;;;;;
2022/01/21 11:57:45;;;;;;;29.42;9.82;;;6.50;89.10;;;;;;6273927;22;20517;-92
2022/01/21 12:00:34;;;;;;;10.50;2.95;;;6.60;89.40;;;;;;6230299;22;20411;-93
2022/01/21 12:03:02;;;;;;;12.48;3.58;;;6.60;87.30;;;;;;6274513;22;20014;-90
2022/01/21 12:05:35;;;;;;;14.88;3.88;;;6.90;90.30;;;;;;6277261;22;20018;-94
2022/01/21 12:08:25;;;;;;;23.83;5.35;;;6.40;86.00;;;;;;6279081;22;20472;-93
2022/01/21 12:11:47;;;;;;;8.98;2.60;;;6.40;86.60;;;;;;6270859;22;20004;-91
2022/01/21 12:17:53;;;;;;;18.13;5.57;;;6.20;87.50;;;;;;6263219;22;20502;-92
2022/01/21 12:20:21;;;;;;;15.57;4.93;;;;;;;;;;6257037;22;20008;-92
2022/01/21 12:26:59;;;;;;;10.15;3.40;;;6.00;89.30;;;;;;6175666;22;20251;-94
2022/01/21 12:32:39;;;;;;;;;;;6.10;90.50;;;;;;6274616;22;20336;-91
2022/01/21 12:35:11;;;;;;;8.38;3.97;;;6.10;87.30;;;;;;6273313;22;19994;-94
2022/01/21 12:41:49;;;;;;;;;;;;;;;;;;;;;
2022/01/21 12:45:08;;;;;;;;;;;;;;;;;;;;;
2022/01/21 12:48:33;;;;;;;;;;;;;;;;;;;;;
2022/01/21 16:15:48;;;;;;;;;;;;;;;;;;;;;
2022/01/21 16:18:17;;;;;;;17.10;6.32;;;;;;;;;;6120381;23;20232;-90
2022/01/21 16:21:36;;;;;;;;;;;;;;;;;;;;;
2022/01/21 16:24:04;;;;;;;19.10;10.40;;;5.80;92.10;;;;;;6120428;23;20058;-92
2022/01/21 16:30:52;;;;;;;;;;;;;;;;;;;;;
2022/01/21 16:41:22;;;;;;;;;;;;;;;;;;;;;
2022/01/21 16:50:08;;;;;;;35.17;22.77;;;3.50;93.50;;;;;;5899393;24;20066;-92
2022/01/21 16:52:37;;;;;;;10.23;5.65;;;;;;;;;;5929683;24;20039;-91
2022/01/21 16:55:05;;;;;;;19.77;9.35;;;5.20;91.80;;;;;;5978483;23;20108;-88
2022/01/21 16:57:31;;;;;;;25.50;11.32;;;;;;;;;;5985824;23;20041;-90
2022/01/21 16:59:58;;;;;;;27.30;13.50;;;5.10;91.70;;;;;;6024174;23;20033;-88
2022/01/21 17:02:25;;;;;;;18.65;9.02;;;5.10;92.70;;;;;;6124880;23;20096;-90
2022/01/21 17:04:52;;;;;;;20.70;10.10;;;6.50;94.50;;;;;;6176967;23;20067;-89
2022/01/21 17:07:19;;;;;;;27.50;13.80;;;5.00;92.00;;;;;;6220131;23;20019;-91
2022/01/21 17:09:46;;;;;;;26.77;14.30;;;4.90;92.60;;;;;;6221043;23;20004;-90
2022/01/21 17:12:12;;;;;;;24.20;10.30;;;5.00;92.70;;;;;;6215718;23;20012;-91
2022/01/21 17:14:38;;;;;;;27.40;13.60;;;;;;;;;;6219634;23;20027;-93
2022/01/21 17:17:04;;;;;;;35.50;16.17;;;4.90;92.50;;;;;;6219296;23;20014;-89
2022/01/21 17:19:30;;;;;;;14.77;8.55;;;4.90;93.80;;;;;;6219824;23;20000;-93
2022/01/21 17:21:56;;;;;;;18.38;8.30;;;4.80;93.50;;;;;;6219643;23;20004;-89
2022/01/21 17:24:22;;;;;;;34.63;16.02;;;;;;;;;;6245038;23;19996;-90
2022/01/21 17:26:48;;;;;;;24.42;11.68;;;4.70;92.70;;;;;;6214736;23;20101;-87
2022/01/21 17:29:15;;;;;;;17.45;8.10;;;4.80;92.80;;;;;;6214287;23;20004;-87
2022/01/21 17:31:41;;;;;;;21.75;9.10;;;4.70;93.40;;;;;;6219377;23;20004;-89
2022/01/21 17:34:09;;;;;;;13.00;4.90;;;;;;;;;;6219158;23;20007;-90
2022/01/21 17:36:35;;;;;;;;;;;4.90;93.00;;;;;;6220360;23;20448;-91
2022/01/21 17:39:01;;;;;;;12.65;4.10;;;;;;;;;;6246612;23;19922;-89
2022/01/21 17:41:27;;;;;;;17.80;7.68;;;4.80;94.00;;;;;;6218550;23;20026;-91
2022/01/21 17:43:57;;;;;;;39.35;17.88;;;5.70;96.40;;;;;;6216537;23;20504;-93
2022/01/21 17:46:24;;;;;;;22.60;11.20;;;5.80;94.90;;;;;;6217312;23;20066;-90
2022/01/21 17:48:50;;;;;;;22.17;9.48;;;4.80;93.90;;;;;;6212897;23;20391;-90
2022/01/21 17:51:17;;;;;;;22.77;9.77;;;4.80;94.20;;;;;;6215097;23;20054;-88
2022/01/21 17:53:44;;;;;;;106.50;41.95;;;5.20;94.00;;;;;;6215461;23;20000;-88
2022/01/21 17:56:10;;;;;;;21.00;9.32;;;4.70;93.90;;;;;;6215022;23;20004;-89
2022/01/21 17:58:36;;;;;;;18.85;7.20;;;;;;;;;;6240271;23;20000;-88
2022/01/21 18:01:03;;;;;;;22.90;11.98;;;4.60;93.80;;;;;;6215497;23;20054;-89
2022/01/21 18:03:29;;;;;;;13.50;7.45;;;4.50;94.40;;;;;;6214701;23;20038;-89
2022/01/21 18:05:56;;;;;;;14.98;7.38;;;4.50;94.60;;;;;;6209009;23;20017;-90
2022/01/21 18:08:23;;;;;;;28.27;16.83;;;4.40;94.30;;;;;;6208817;23;20008;-90
2022/01/21 18:10:59;;;;;;;22.63;11.65;;;4.40;95.10;;;;;;6209510;23;20008;-89
2022/01/21 18:13:26;;;;;;;19.77;7.60;;;4.30;94.30;;;;;;6210686;23;20017;-88
2022/01/21 18:15:53;;;;;;;15.55;9.00;;;4.30;94.90;;;;;;6219699;23;20000;-89
2022/01/21 18:18:20;;;;;;;22.13;8.77;;;4.20;94.30;;;;;;6228624;23;20452;-89
2022/01/21 18:20:47;;;;;;;18.27;9.82;;;4.10;93.90;;;;;;6228852;23;20064;-89
2022/01/21 18:23:13;;;;;;;27.70;12.15;;;4.40;94.90;;;;;;6218864;23;20012;-89
2022/01/21 18:25:39;;;;;;;26.23;12.68;;;;;;;;;;6217844;23;20015;-95
2022/01/21 18:28:05;;;;;;;14.80;7.80;;;4.00;94.30;;;;;;6215219;23;20052;-90
2022/01/21 18:30:32;;;;;;;25.08;13.85;;;4.00;95.20;;;;;;6216199;23;20123;-89
2022/01/21 18:32:58;;;;;;;21.83;13.23;;;3.90;94.90;;;;;;6207788;23;20525;-93
2022/01/21 18:35:24;;;;;;;31.23;12.80;;;4.10;97.50;;;;;;6208447;23;20055;-90
2022/01/21 18:37:51;;;;;;;18.95;10.02;;;3.90;95.70;;;;;;6208991;23;20680;-89
2022/01/21 18:40:17;;;;;;;29.50;19.65;;;5.10;95.10;;;;;;6210324;23;20031;-95
2022/01/21 18:42:44;;;;;;;69.57;27.45;;;;;;;;;;6213178;23;20001;-94
2022/01/21 18:45:16;;;;;;;195.27;85.30;;;3.70;94.70;;;;;;6210933;23;20019;-89
2022/01/21 18:47:42;;;;;;;66.78;36.55;;;3.70;95.30;;;;;;6208708;23;20341;-89
2022/01/21 18:50:15;;;;;;;55.58;29.83;;;4.30;96.00;;;;;;6212243;23;20079;-88
2022/01/21 18:52:46;;;;;;;37.35;19.77;;;3.60;95.20;;;;;;6211967;23;20059;-94
2022/01/21 18:55:14;;;;;;;25.20;13.90;;;3.60;95.80;;;;;;6211707;23;20087;-89
2022/01/21 18:57:40;;;;;;;16.85;7.15;;;;;;;;;;6210981;23;20008;-89
2022/01/21 19:00:11;;;;;;;23.45;12.30;;;3.50;95.40;;;;;;6212325;23;20011;-88
2022/01/21 19:02:39;;;;;;;29.35;14.90;;;3.50;96.00;;;;;;6209980;23;20008;-88
2022/01/21 19:05:10;;;;;;;28.60;14.38;;;3.60;95.80;;;;;;6211117;23;20017;-89
2022/01/21 19:07:37;;;;;;;25.65;13.60;;;3.50;95.80;;;;;;6210431;23;20012;-89
2022/01/21 19:10:05;;;;;;;38.20;20.67;;;3.70;96.20;;;;;;6213078;23;20412;-90
2022/01/21 19:12:31;;;;;;;14.85;6.28;;;3.40;95.80;;;;;;6212749;23;20005;-90
2022/01/21 19:14:57;;;;;;;32.83;16.92;;;;;;;;;;6211469;23;20058;-89
2022/01/21 19:17:23;;;;;;;38.63;20.30;;;3.30;95.80;;;;;;6211665;23;20345;-89
2022/01/21 19:19:49;;;;;;;31.27;14.40;;;;;;;;;;6211125;23;20005;-94
2022/01/21 19:22:14;;;;;;;32.90;14.15;;;3.30;95.70;;;;;;6212390;23;20005;-90
2022/01/21 19:24:49;;;;;;;80.20;39.42;;;4.20;96.40;;;;;;6210906;23;20004;-88
2022/01/21 19:27:15;;;;;;;62.65;27.25;;;3.30;96.60;;;;;;6217431;23;20017;-93
2022/01/21 19:29:42;;;;;;;51.55;22.20;;;3.20;95.40;;;;;;6218540;23;20127;-94
2022/01/21 19:32:11;;;;;;;33.20;15.60;;;3.20;95.80;;;;;;6212895;23;20378;-88
2022/01/21 19:34:39;;;;;;;40.47;15.90;;;3.20;96.00;;;;;;6210647;23;20001;-89
2022/01/21 19:37:06;;;;;;;44.92;21.65;;;3.40;96.00;;;;;;6211340;23;20012;-89
2022/01/21 19:39:59;;;;;;;;;;;;;;;;;;;;;
2022/01/21 19:42:28;;;;;;;36.25;17.65;;;3.30;96.80;;;;;;6216791;23;20298;-93
2022/01/21 19:45:00;;;;;;;;;;;3.10;98.40;;;;;;6227519;23;19985;-93
2022/01/21 19:47:55;;;;;;;19.33;8.23;;;2.90;95.50;;;;;;6219032;23;19915;-94
2022/01/21 19:51:02;;;;;;;22.73;11.10;;;3.10;95.90;;;;;;6212176;23;20008;-90
2022/01/21 19:56:16;;;;;;;36.00;15.95;;;2.90;95.80;;;;;;6179980;23;20239;-89
2022/01/21 20:01:45;;;;;;;45.88;21.45;;;2.80;98.90;;;;;;6133414;23;20006;-91
2022/01/21 20:10:17;;;;;;;17.48;9.30;;;2.60;97.60;;;;;;6148614;23;20088;-89
2022/01/21 20:13:13;;;;;;;19.40;9.25;;;2.70;96.70;;;;;;6181956;23;20013;-89
2022/01/21 20:15:47;;;;;;;23.08;11.57;;;2.60;96.60;;;;;;6181671;23;19990;-91
2022/01/21 20:18:24;;;;;;;22.15;8.57;;;2.70;96.40;;;;;;6160887;23;20488;-90
2022/01/21 20:21:03;;;;;;;;;;;;;;;;;;;;;
2022/01/21 20:23:50;;;;;;;66.95;23.90;;;2.60;96.30;;;;;;6188551;23;20032;-90
2022/01/21 20:26:16;;;;;;;58.53;23.65;;;3.60;97.60;;;;;;6157354;23;20048;-91
2022/01/21 20:28:43;;;;;;;30.77;13.68;;;3.70;97.50;;;;;;6158367;23;20008;-90
2022/01/21 20:31:13;;;;;;;22.20;11.15;;;2.50;96.90;;;;;;6156134;23;20005;-89
2022/01/21 20:33:40;;;;;;;18.00;8.93;;;2.90;97.50;;;;;;6157541;23;20036;-89
2022/01/21 20:36:40;;;;;;;;;;;;;;;;;;;;;
2022/01/21 20:40:55;;;;;;;21.95;8.90;;;2.50;96.50;;;;;;6218514;23;20072;-93
2022/01/21 20:42:49;;;;;;;18.42;7.97;;;4.10;98.20;;;;;;6116967;23;20012;-91
2022/01/21 20:45:15;;;;;;;21.63;9.10;;;3.20;98.30;;;;;;6209078;23;20008;-88
2022/01/21 20:47:46;;;;;;;18.33;7.97;;;2.30;96.80;;;;;;6211281;23;20083;-90
2022/01/21 20:50:12;;;;;;;22.15;11.75;;;2.40;99.20;;;;;;6211722;23;20031;-89
2022/01/21 20:52:39;;;;;;;12.35;6.50;;;2.30;96.70;;;;;;6215990;23;20008;-89
2022/01/21 20:55:07;;;;;;;13.15;7.68;;;2.80;97.70;;;;;;6221839;23;20008;-88
2022/01/21 20:57:42;;;;;;;14.97;7.60;;;2.30;96.40;;;;;;6230089;23;20084;-90
2022/01/21 21:00:10;;;;;;;18.63;8.23;;;3.50;97.50;;;;;;6226680;23;20017;-88
2022/01/21 21:02:42;;;;;;;17.83;9.90;;;2.10;96.90;;;;;;6214299;23;20015;-87
2022/01/21 21:25:21;;;;;;;;;;;;;;;;;;;;;
2022/01/21 22:16:27;;;;;;;14.18;7.38;;;2.30;98.40;;;;;;6199987;23;20000;-92
2022/01/21 23:06:51;;;;;;;;;;;;;;;;;;;;;
2022/01/21 23:17:42;;;;;;;;;;;;;;;;;;;;;
2022/01/21 23:20:29;;;;;;;;;;;;;;;;;;;;;
2022/01/21 23:33:55;;;;;;;;;;;;;;;;;;;;;
2022/01/21 23:47:17;;;;;;;;;;;;;;;;;;;;;
2022/01/21 23:50:11;;;;;;;;;;;;;;;;;;;;;
